sensor_id;sensor_type;location;lat;lon;timestamp;pressure;altitude;pressure_sealevel;temperature;humidity
51603;BME280;37954;51.980;5.850;2023-01-26T00:01:00;102188.88;;;0.78;87.86
51603;BME280;37954;51.980;5.850;2023-01-26T00:05:12;102195.38;;;0.85;87.82
51603;BME280;37954;51.980;5.850;2023-01-26T00:09:23;102173.72;;;0.80;87.54
51603;BME280;37954;51.980;5.850;2023-01-26T00:13:35;102185.88;;;0.82;87.50
51603;BME280;37954;51.980;5.850;2023-01-26T00:17:47;102172.88;;;0.79;87.72
51603;BME280;37954;51.980;5.850;2023-01-26T00:22:01;102167.72;;;0.78;88.17
51603;BME280;37954;51.980;5.850;2023-01-26T00:26:15;102164.25;;;0.77;87.82
51603;BME280;37954;51.980;5.850;2023-01-26T00:30:27;102167.47;;;0.81;87.79
51603;BME280;37954;51.980;5.850;2023-01-26T00:34:41;102156.44;;;0.76;88.03
51603;BME280;37954;51.980;5.850;2023-01-26T00:38:55;102157.97;;;0.78;87.55
51603;BME280;37954;51.980;5.850;2023-01-26T00:43:06;102150.19;;;0.77;88.13
51603;BME280;37954;51.980;5.850;2023-01-26T00:47:18;102134.56;;;0.74;87.88
51603;BME280;37954;51.980;5.850;2023-01-26T00:51:30;102143.91;;;0.78;87.69
51603;BME280;37954;51.980;5.850;2023-01-26T00:55:42;102152.69;;;0.78;87.72
51603;BME280;37954;51.980;5.850;2023-01-26T00:59:53;102147.41;;;0.78;88.08
51603;BME280;37954;51.980;5.850;2023-01-26T01:04:07;102147.53;;;0.77;88.28
51603;BME280;37954;51.980;5.850;2023-01-26T01:08:19;102139.59;;;0.77;88.00
51603;BME280;37954;51.980;5.850;2023-01-26T01:12:31;102148.59;;;0.85;88.49
51603;BME280;37954;51.980;5.850;2023-01-26T01:16:43;102149.16;;;0.89;88.42
51603;BME280;37954;51.980;5.850;2023-01-26T01:20:56;102140.97;;;0.92;88.47
51603;BME280;37954;51.980;5.850;2023-01-26T01:25:08;102134.00;;;0.91;88.27
51603;BME280;37954;51.980;5.850;2023-01-26T01:29:19;102135.81;;;0.90;88.30
51603;BME280;37954;51.980;5.850;2023-01-26T01:33:31;102134.72;;;0.93;88.55
51603;BME280;37954;51.980;5.850;2023-01-26T01:37:42;102117.94;;;0.83;88.62
51603;BME280;37954;51.980;5.850;2023-01-26T01:41:54;102124.16;;;0.93;88.39
51603;BME280;37954;51.980;5.850;2023-01-26T01:50:37;102127.13;;;0.99;88.82
51603;BME280;37954;51.980;5.850;2023-01-26T01:59:05;102113.31;;;0.96;88.71
51603;BME280;37954;51.980;5.850;2023-01-26T02:03:18;102111.25;;;0.99;88.70
51603;BME280;37954;51.980;5.850;2023-01-26T02:07:31;102109.72;;;0.97;88.76
51603;BME280;37954;51.980;5.850;2023-01-26T02:11:43;102120.28;;;0.97;88.98
51603;BME280;37954;51.980;5.850;2023-01-26T02:15:57;102102.50;;;0.99;88.64
51603;BME280;37954;51.980;5.850;2023-01-26T02:20:25;102100.28;;;1.04;88.69
51603;BME280;37954;51.980;5.850;2023-01-26T02:24:40;102093.84;;;0.97;88.76
51603;BME280;37954;51.980;5.850;2023-01-26T02:28:52;102102.81;;;1.05;88.73
51603;BME280;37954;51.980;5.850;2023-01-26T02:33:03;102099.72;;;1.00;88.51
51603;BME280;37954;51.980;5.850;2023-01-26T02:37:17;102092.03;;;0.97;88.69
51603;BME280;37954;51.980;5.850;2023-01-26T02:41:29;102099.31;;;1.05;88.77
51603;BME280;37954;51.980;5.850;2023-01-26T02:45:59;102088.72;;;1.05;89.10
51603;BME280;37954;51.980;5.850;2023-01-26T02:50:10;102094.59;;;1.09;88.89
51603;BME280;37954;51.980;5.850;2023-01-26T02:54:23;102094.72;;;1.07;88.84
51603;BME280;37954;51.980;5.850;2023-01-26T02:58:53;102105.19;;;1.09;88.99
51603;BME280;37954;51.980;5.850;2023-01-26T03:03:13;102100.63;;;1.11;88.97
51603;BME280;37954;51.980;5.850;2023-01-26T03:07:25;102101.91;;;1.16;88.86
51603;BME280;37954;51.980;5.850;2023-01-26T03:11:37;102108.06;;;1.17;88.83
51603;BME280;37954;51.980;5.850;2023-01-26T03:16:00;102104.69;;;1.15;88.93
51603;BME280;37954;51.980;5.850;2023-01-26T03:20:17;102104.44;;;1.18;88.82
51603;BME280;37954;51.980;5.850;2023-01-26T03:24:47;102104.31;;;1.19;88.76
51603;BME280;37954;51.980;5.850;2023-01-26T03:29:18;102091.63;;;1.23;89.00
51603;BME280;37954;51.980;5.850;2023-01-26T03:33:30;102087.91;;;1.25;88.75
51603;BME280;37954;51.980;5.850;2023-01-26T03:37:43;102102.44;;;1.31;88.73
51603;BME280;37954;51.980;5.850;2023-01-26T03:42:03;102093.78;;;1.29;88.98
51603;BME280;37954;51.980;5.850;2023-01-26T03:46:33;102093.53;;;1.32;88.91
51603;BME280;37954;51.980;5.850;2023-01-26T03:51:04;102088.88;;;1.24;88.78
51603;BME280;37954;51.980;5.850;2023-01-26T03:55:35;102086.94;;;1.26;88.81
51603;BME280;37954;51.980;5.850;2023-01-26T04:00:05;102084.28;;;1.26;89.34
51603;BME280;37954;51.980;5.850;2023-01-26T04:04:22;102098.09;;;1.30;89.00
51603;BME280;37954;51.980;5.850;2023-01-26T04:08:53;102084.75;;;1.31;88.61
51603;BME280;37954;51.980;5.850;2023-01-26T04:13:04;102089.78;;;1.34;89.01
51603;BME280;37954;51.980;5.850;2023-01-26T04:17:44;102082.44;;;1.38;88.62
51603;BME280;37954;51.980;5.850;2023-01-26T04:22:15;102088.41;;;1.40;88.87
51603;BME280;37954;51.980;5.850;2023-01-26T04:26:30;102095.13;;;1.44;88.73
51603;BME280;37954;51.980;5.850;2023-01-26T04:30:50;102091.63;;;1.44;88.69
51603;BME280;37954;51.980;5.850;2023-01-26T04:35:04;102085.75;;;1.40;88.68
51603;BME280;37954;51.980;5.850;2023-01-26T04:39:17;102081.31;;;1.40;88.50
51603;BME280;37954;51.980;5.850;2023-01-26T04:43:32;102078.09;;;1.37;88.63
51603;BME280;37954;51.980;5.850;2023-01-26T04:47:44;102081.06;;;1.44;88.75
51603;BME280;37954;51.980;5.850;2023-01-26T04:51:58;102080.91;;;1.45;88.86
51603;BME280;37954;51.980;5.850;2023-01-26T04:56:33;102093.66;;;1.51;88.77
51603;BME280;37954;51.980;5.850;2023-01-26T05:00:52;102080.53;;;1.50;88.79
51603;BME280;37954;51.980;5.850;2023-01-26T05:05:05;102062.66;;;1.42;88.61
51603;BME280;37954;51.980;5.850;2023-01-26T05:09:17;102061.41;;;1.46;88.83
51603;BME280;37954;51.980;5.850;2023-01-26T05:13:31;102068.25;;;1.49;89.04
51603;BME280;37954;51.980;5.850;2023-01-26T05:17:53;102073.44;;;1.50;89.06
51603;BME280;37954;51.980;5.850;2023-01-26T05:22:20;102067.44;;;1.48;88.73
51603;BME280;37954;51.980;5.850;2023-01-26T05:27:03;102067.16;;;1.51;88.87
51603;BME280;37954;51.980;5.850;2023-01-26T05:31:47;102064.53;;;1.51;88.76
51603;BME280;37954;51.980;5.850;2023-01-26T05:36:03;102069.97;;;1.59;88.75
51603;BME280;37954;51.980;5.850;2023-01-26T05:40:16;102067.34;;;1.59;88.56
51603;BME280;37954;51.980;5.850;2023-01-26T05:44:29;102072.38;;;1.62;88.77
51603;BME280;37954;51.980;5.850;2023-01-26T05:48:47;102065.13;;;1.64;88.91
51603;BME280;37954;51.980;5.850;2023-01-26T05:52:58;102052.41;;;1.58;88.73
51603;BME280;37954;51.980;5.850;2023-01-26T05:57:11;102060.09;;;1.61;88.81
51603;BME280;37954;51.980;5.850;2023-01-26T06:01:30;102060.22;;;1.60;89.20
51603;BME280;37954;51.980;5.850;2023-01-26T06:05:51;102078.38;;;1.64;89.17
51603;BME280;37954;51.980;5.850;2023-01-26T06:10:09;102076.44;;;1.66;88.89
51603;BME280;37954;51.980;5.850;2023-01-26T06:14:41;102080.91;;;1.66;89.00
51603;BME280;37954;51.980;5.850;2023-01-26T06:18:55;102075.34;;;1.69;89.17
51603;BME280;37954;51.980;5.850;2023-01-26T06:23:06;102079.53;;;1.71;88.89
51603;BME280;37954;51.980;5.850;2023-01-26T06:27:22;102083.72;;;1.74;88.96
51603;BME280;37954;51.980;5.850;2023-01-26T06:31:36;102073.28;;;1.72;88.96
51603;BME280;37954;51.980;5.850;2023-01-26T06:35:48;102074.91;;;1.73;89.08
51603;BME280;37954;51.980;5.850;2023-01-26T06:40:00;102086.22;;;1.75;89.15
51603;BME280;37954;51.980;5.850;2023-01-26T06:44:12;102086.09;;;1.77;88.67
51603;BME280;37954;51.980;5.850;2023-01-26T06:48:24;102095.00;;;1.76;88.83
51603;BME280;37954;51.980;5.850;2023-01-26T06:52:40;102100.31;;;1.76;89.00
51603;BME280;37954;51.980;5.850;2023-01-26T06:57:11;102105.47;;;1.78;89.08
51603;BME280;37954;51.980;5.850;2023-01-26T07:01:51;102107.53;;;1.74;89.20
51603;BME280;37954;51.980;5.850;2023-01-26T07:06:03;102102.00;;;1.77;89.24
51603;BME280;37954;51.980;5.850;2023-01-26T07:10:16;102111.63;;;1.78;89.68
51603;BME280;37954;51.980;5.850;2023-01-26T07:14:27;102102.81;;;1.78;89.30
51603;BME280;37954;51.980;5.850;2023-01-26T07:18:39;102085.81;;;1.70;89.17
51603;BME280;37954;51.980;5.850;2023-01-26T07:22:51;102099.78;;;1.82;89.35
51603;BME280;37954;51.980;5.850;2023-01-26T07:27:02;102109.41;;;1.83;89.50
51603;BME280;37954;51.980;5.850;2023-01-26T07:31:14;102099.78;;;1.82;89.36
51603;BME280;37954;51.980;5.850;2023-01-26T07:35:26;102107.47;;;1.85;89.24
51603;BME280;37954;51.980;5.850;2023-01-26T07:39:37;102109.88;;;1.88;89.41
51603;BME280;37954;51.980;5.850;2023-01-26T07:43:49;102115.03;;;1.90;89.60
51603;BME280;37954;51.980;5.850;2023-01-26T07:48:02;102119.50;;;1.89;89.65
51603;BME280;37954;51.980;5.850;2023-01-26T07:52:14;102129.94;;;1.91;89.56
51603;BME280;37954;51.980;5.850;2023-01-26T07:56:25;102126.47;;;1.90;89.53
51603;BME280;37954;51.980;5.850;2023-01-26T08:01:08;102134.56;;;1.98;89.90
51603;BME280;37954;51.980;5.850;2023-01-26T08:05:20;102128.44;;;1.98;89.91
51603;BME280;37954;51.980;5.850;2023-01-26T08:09:32;102133.41;;;1.91;90.16
51603;BME280;37954;51.980;5.850;2023-01-26T08:13:44;102132.31;;;1.94;90.44
51603;BME280;37954;51.980;5.850;2023-01-26T08:17:56;102137.81;;;2.02;90.55
51603;BME280;37954;51.980;5.850;2023-01-26T08:22:07;102134.78;;;2.06;90.42
51603;BME280;37954;51.980;5.850;2023-01-26T08:26:19;102137.25;;;2.08;90.91
51603;BME280;37954;51.980;5.850;2023-01-26T08:30:31;102132.28;;;2.15;90.78
51603;BME280;37954;51.980;5.850;2023-01-26T08:34:42;102132.84;;;2.18;90.76
51603;BME280;37954;51.980;5.850;2023-01-26T08:38:54;102125.59;;;2.20;90.45
51603;BME280;37954;51.980;5.850;2023-01-26T08:43:06;102123.09;;;2.28;90.67
51603;BME280;37954;51.980;5.850;2023-01-26T08:47:18;102124.25;;;2.35;90.72
51603;BME280;37954;51.980;5.850;2023-01-26T08:51:29;102133.31;;;2.42;90.88
51603;BME280;37954;51.980;5.850;2023-01-26T08:55:41;102129.69;;;2.43;90.89
51603;BME280;37954;51.980;5.850;2023-01-26T08:59:53;102132.34;;;2.43;90.52
51603;BME280;37954;51.980;5.850;2023-01-26T09:04:04;102130.53;;;2.44;90.93
51603;BME280;37954;51.980;5.850;2023-01-26T09:08:16;102131.56;;;2.53;91.11
51603;BME280;37954;51.980;5.850;2023-01-26T09:12:28;102136.00;;;2.52;91.11
51603;BME280;37954;51.980;5.850;2023-01-26T09:16:39;102137.81;;;2.52;90.93
51603;BME280;37954;51.980;5.850;2023-01-26T09:20:51;102154.88;;;2.59;90.91
51603;BME280;37954;51.980;5.850;2023-01-26T09:25:04;102140.47;;;2.52;91.59
51603;BME280;37954;51.980;5.850;2023-01-26T09:29:19;102147.06;;;2.57;90.84
51603;BME280;37954;51.980;5.850;2023-01-26T09:33:31;102148.88;;;2.66;91.28
51603;BME280;37954;51.980;5.850;2023-01-26T09:37:43;102147.25;;;2.75;91.38
51603;BME280;37954;51.980;5.850;2023-01-26T09:51:09;102139.84;;;2.98;91.90
51603;BME280;37954;51.980;5.850;2023-01-26T09:55:24;102146.41;;;3.03;91.98
51603;BME280;37954;51.980;5.850;2023-01-26T09:59:45;102145.28;;;3.06;91.57
51603;BME280;37954;51.980;5.850;2023-01-26T10:08:26;102151.00;;;3.40;91.73
51603;BME280;37954;51.980;5.850;2023-01-26T10:12:38;102145.53;;;3.51;91.13
51603;BME280;37954;51.980;5.850;2023-01-26T10:16:51;102148.88;;;3.53;91.40
51603;BME280;37954;51.980;5.850;2023-01-26T10:21:05;102150.53;;;3.64;91.51
51603;BME280;37954;51.980;5.850;2023-01-26T10:31:24;102155.03;;;4.10;91.71
51603;BME280;37954;51.980;5.850;2023-01-26T10:35:37;102162.31;;;4.35;91.29
51603;BME280;37954;51.980;5.850;2023-01-26T10:40:05;102157.59;;;4.57;91.10
51603;BME280;37954;51.980;5.850;2023-01-26T10:44:33;102152.88;;;4.68;90.99
51603;BME280;37954;51.980;5.850;2023-01-26T10:49:35;102150.31;;;4.76;90.31
51603;BME280;37954;51.980;5.850;2023-01-26T10:53:26;102153.53;;;4.98;89.45
51603;BME280;37954;51.980;5.850;2023-01-26T10:57:41;102161.59;;;5.23;89.64
51603;BME280;37954;51.980;5.850;2023-01-26T11:06:14;102129.22;;;5.54;88.93
51603;BME280;37954;51.980;5.850;2023-01-26T11:10:32;102140.63;;;5.72;88.40
51603;BME280;37954;51.980;5.850;2023-01-26T11:15:02;102138.47;;;5.93;88.15
51603;BME280;37954;51.980;5.850;2023-01-26T11:20:23;102150.25;;;6.17;87.52
51603;BME280;37954;51.980;5.850;2023-01-26T11:37:37;102160.81;;;6.77;87.55
51603;BME280;37954;51.980;5.850;2023-01-26T11:42:06;102149.50;;;6.99;87.10
51603;BME280;37954;51.980;5.850;2023-01-26T11:46:54;102143.34;;;7.23;87.13
51603;BME280;37954;51.980;5.850;2023-01-26T11:51:52;102158.72;;;7.53;87.38
51603;BME280;37954;51.980;5.850;2023-01-26T12:01:00;102134.47;;;8.18;86.92
51603;BME280;37954;51.980;5.850;2023-01-26T12:05:27;102138.72;;;8.52;86.73
51603;BME280;37954;51.980;5.850;2023-01-26T12:09:43;102132.16;;;8.85;86.62
51603;BME280;37954;51.980;5.850;2023-01-26T12:14:28;102139.25;;;9.24;85.69
51603;BME280;37954;51.980;5.850;2023-01-26T12:19:01;102129.72;;;9.59;85.44
51603;BME280;37954;51.980;5.850;2023-01-26T12:23:42;102131.38;;;9.60;84.00
51603;BME280;37954;51.980;5.850;2023-01-26T12:28:22;102117.19;;;9.36;83.09
51603;BME280;37954;51.980;5.850;2023-01-26T12:32:35;102105.16;;;9.32;83.26
51603;BME280;37954;51.980;5.850;2023-01-26T12:41:34;102106.16;;;9.17;82.88
51603;BME280;37954;51.980;5.850;2023-01-26T12:45:51;102087.97;;;9.04;83.32
51603;BME280;37954;51.980;5.850;2023-01-26T12:50:24;102090.94;;;9.09;83.08
51603;BME280;37954;51.980;5.850;2023-01-26T12:59:27;102079.88;;;9.12;83.20
51603;BME280;37954;51.980;5.850;2023-01-26T13:04:04;102079.09;;;9.03;83.12
51603;BME280;37954;51.980;5.850;2023-01-26T13:17:41;102079.56;;;8.84;83.20
51603;BME280;37954;51.980;5.850;2023-01-26T13:21:57;102072.97;;;8.95;83.27
51603;BME280;37954;51.980;5.850;2023-01-26T13:30:33;102073.38;;;9.06;83.14
51603;BME280;37954;51.980;5.850;2023-01-26T13:34:54;102074.28;;;8.99;82.51
51603;BME280;37954;51.980;5.850;2023-01-26T13:39:17;102069.75;;;8.99;82.28
51603;BME280;37954;51.980;5.850;2023-01-26T13:43:48;102064.31;;;9.07;82.65
51603;BME280;37954;51.980;5.850;2023-01-26T13:48:03;102070.97;;;8.97;82.29
51603;BME280;37954;51.980;5.850;2023-01-26T13:52:22;102069.81;;;8.91;82.54
51603;BME280;37954;51.980;5.850;2023-01-26T13:56:40;102070.28;;;8.95;82.45
51603;BME280;37954;51.980;5.850;2023-01-26T14:01:09;102065.66;;;8.89;82.04
51603;BME280;37954;51.980;5.850;2023-01-26T14:05:21;102064.22;;;8.78;82.64
51603;BME280;37954;51.980;5.850;2023-01-26T14:09:47;102066.13;;;8.69;82.63
51603;BME280;37954;51.980;5.850;2023-01-26T14:14:01;102065.34;;;8.61;82.38
51603;BME280;37954;51.980;5.850;2023-01-26T14:18:19;102078.03;;;8.67;82.29
51603;BME280;37954;51.980;5.850;2023-01-26T14:22:32;102060.53;;;8.56;82.48
51603;BME280;37954;51.980;5.850;2023-01-26T14:26:43;102072.56;;;8.60;82.41
51603;BME280;37954;51.980;5.850;2023-01-26T14:31:34;102069.56;;;8.55;81.88
51603;BME280;37954;51.980;5.850;2023-01-26T14:35:39;102084.81;;;8.55;81.71
51603;BME280;37954;51.980;5.850;2023-01-26T14:44:31;102081.34;;;8.46;80.60
51603;BME280;37954;51.980;5.850;2023-01-26T14:48:49;102081.72;;;8.35;80.50
51603;BME280;37954;51.980;5.850;2023-01-26T14:53:03;102074.25;;;8.22;80.58
51603;BME280;37954;51.980;5.850;2023-01-26T14:57:18;102080.44;;;8.15;80.60
51603;BME280;37954;51.980;5.850;2023-01-26T15:01:30;102070.19;;;7.95;80.99
51603;BME280;37954;51.980;5.850;2023-01-26T15:05:42;102079.16;;;8.11;80.97
51603;BME280;37954;51.980;5.850;2023-01-26T15:09:54;102074.81;;;8.10;81.24
51603;BME280;37954;51.980;5.850;2023-01-26T15:14:29;102076.72;;;7.93;81.30
51603;BME280;37954;51.980;5.850;2023-01-26T15:18:42;102081.75;;;7.88;81.25
51603;BME280;37954;51.980;5.850;2023-01-26T15:22:53;102085.44;;;7.87;81.23
51603;BME280;37954;51.980;5.850;2023-01-26T15:27:06;102079.72;;;7.90;81.12
51603;BME280;37954;51.980;5.850;2023-01-26T15:31:20;102076.06;;;7.91;80.77
51603;BME280;37954;51.980;5.850;2023-01-26T15:35:34;102076.22;;;7.89;80.73
51603;BME280;37954;51.980;5.850;2023-01-26T15:39:45;102070.22;;;7.87;80.67
51603;BME280;37954;51.980;5.850;2023-01-26T15:43:58;102080.25;;;7.85;81.12
51603;BME280;37954;51.980;5.850;2023-01-26T15:48:09;102079.06;;;7.88;81.34
51603;BME280;37954;51.980;5.850;2023-01-26T15:52:24;102078.75;;;7.83;81.37
51603;BME280;37954;51.980;5.850;2023-01-26T15:56:40;102081.41;;;7.83;81.98
51603;BME280;37954;51.980;5.850;2023-01-26T16:00:51;102086.09;;;7.81;82.15
51603;BME280;37954;51.980;5.850;2023-01-26T16:05:04;102074.94;;;7.77;82.25
51603;BME280;37954;51.980;5.850;2023-01-26T16:09:15;102092.00;;;7.76;82.78
51603;BME280;37954;51.980;5.850;2023-01-26T16:13:27;102095.00;;;7.73;83.09
51603;BME280;37954;51.980;5.850;2023-01-26T16:17:38;102105.38;;;7.68;83.71
51603;BME280;37954;51.980;5.850;2023-01-26T16:21:50;102102.06;;;7.58;83.91
51603;BME280;37954;51.980;5.850;2023-01-26T16:26:02;102110.09;;;7.58;84.34
51603;BME280;37954;51.980;5.850;2023-01-26T16:30:14;102108.41;;;7.57;84.74
51603;BME280;37954;51.980;5.850;2023-01-26T16:34:29;102110.41;;;7.55;85.01
51603;BME280;37954;51.980;5.850;2023-01-26T16:38:40;102111.25;;;7.47;85.53
51603;BME280;37954;51.980;5.850;2023-01-26T16:42:52;102120.78;;;7.50;85.67
51603;BME280;37954;51.980;5.850;2023-01-26T16:47:04;102117.59;;;7.46;85.80
51603;BME280;37954;51.980;5.850;2023-01-26T16:51:27;102120.78;;;7.50;85.58
51603;BME280;37954;51.980;5.850;2023-01-26T16:55:40;102115.09;;;7.45;85.63
51603;BME280;37954;51.980;5.850;2023-01-26T16:59:51;102106.94;;;7.38;85.36
51603;BME280;37954;51.980;5.850;2023-01-26T17:04:03;102114.94;;;7.38;84.79
51603;BME280;37954;51.980;5.850;2023-01-26T17:08:15;102121.13;;;7.39;84.55
51603;BME280;37954;51.980;5.850;2023-01-26T17:12:27;102112.09;;;7.31;83.86
51603;BME280;37954;51.980;5.850;2023-01-26T17:16:39;102115.44;;;7.33;83.13
51603;BME280;37954;51.980;5.850;2023-01-26T17:20:51;102122.13;;;7.29;82.65
51603;BME280;37954;51.980;5.850;2023-01-26T17:25:03;102102.09;;;7.25;82.23
51603;BME280;37954;51.980;5.850;2023-01-26T17:29:14;102110.75;;;7.27;81.55
51603;BME280;37954;51.980;5.850;2023-01-26T17:33:27;102114.09;;;7.29;81.86
51603;BME280;37954;51.980;5.850;2023-01-26T17:37:39;102105.78;;;7.24;81.67
51603;BME280;37954;51.980;5.850;2023-01-26T17:41:50;102121.66;;;7.26;81.61
51603;BME280;37954;51.980;5.850;2023-01-26T17:46:14;102122.81;;;7.23;81.80
51603;BME280;37954;51.980;5.850;2023-01-26T17:50:25;102109.09;;;7.18;81.78
51603;BME280;37954;51.980;5.850;2023-01-26T17:54:37;102105.09;;;7.14;81.85
51603;BME280;37954;51.980;5.850;2023-01-26T17:58:52;102112.44;;;7.20;82.23
51603;BME280;37954;51.980;5.850;2023-01-26T18:03:04;102115.63;;;7.16;82.36
51603;BME280;37954;51.980;5.850;2023-01-26T18:07:16;102120.47;;;7.20;82.60
51603;BME280;37954;51.980;5.850;2023-01-26T18:11:28;102114.28;;;7.20;82.71
51603;BME280;37954;51.980;5.850;2023-01-26T18:15:39;102107.09;;;7.20;82.31
51603;BME280;37954;51.980;5.850;2023-01-26T18:19:51;102108.75;;;7.13;82.49
51603;BME280;37954;51.980;5.850;2023-01-26T18:24:04;102099.94;;;7.05;82.90
51603;BME280;37954;51.980;5.850;2023-01-26T18:28:16;102095.41;;;7.05;82.79
51603;BME280;37954;51.980;5.850;2023-01-26T18:32:27;102097.59;;;7.02;83.10
51603;BME280;37954;51.980;5.850;2023-01-26T18:36:39;102095.91;;;7.01;83.10
51603;BME280;37954;51.980;5.850;2023-01-26T18:40:50;102114.78;;;6.99;82.64
51603;BME280;37954;51.980;5.850;2023-01-26T18:45:02;102100.22;;;6.93;83.02
51603;BME280;37954;51.980;5.850;2023-01-26T18:49:14;102087.88;;;6.84;82.94
51603;BME280;37954;51.980;5.850;2023-01-26T18:53:50;102104.25;;;6.97;83.06
51603;BME280;37954;51.980;5.850;2023-01-26T18:58:02;102114.44;;;6.94;83.24
51603;BME280;37954;51.980;5.850;2023-01-26T19:02:14;102108.25;;;6.93;83.26
51603;BME280;37954;51.980;5.850;2023-01-26T19:06:27;102099.75;;;6.90;83.44
51603;BME280;37954;51.980;5.850;2023-01-26T19:10:39;102107.25;;;6.94;83.49
51603;BME280;37954;51.980;5.850;2023-01-26T19:14:51;102118.44;;;6.90;83.39
51603;BME280;37954;51.980;5.850;2023-01-26T19:19:03;102108.41;;;6.84;83.44
51603;BME280;37954;51.980;5.850;2023-01-26T19:23:15;102122.97;;;6.89;83.19
51603;BME280;37954;51.980;5.850;2023-01-26T19:27:31;102131.66;;;6.91;83.73
51603;BME280;37954;51.980;5.850;2023-01-26T19:31:43;102117.63;;;6.89;83.13
51603;BME280;37954;51.980;5.850;2023-01-26T19:35:55;102116.44;;;6.84;83.37
51603;BME280;37954;51.980;5.850;2023-01-26T19:40:07;102116.28;;;6.85;83.25
51603;BME280;37954;51.980;5.850;2023-01-26T19:44:19;102122.44;;;6.86;83.43
51603;BME280;37954;51.980;5.850;2023-01-26T19:48:30;102116.44;;;6.84;83.41
51603;BME280;37954;51.980;5.850;2023-01-26T19:52:42;102123.28;;;6.86;83.26
51603;BME280;37954;51.980;5.850;2023-01-26T19:56:54;102124.44;;;6.84;83.10
51603;BME280;37954;51.980;5.850;2023-01-26T20:01:08;102120.78;;;6.85;83.12
51603;BME280;37954;51.980;5.850;2023-01-26T20:05:20;102125.78;;;6.88;83.11
51603;BME280;37954;51.980;5.850;2023-01-26T20:09:33;102122.13;;;6.89;83.06
51603;BME280;37954;51.980;5.850;2023-01-26T20:13:44;102126.47;;;6.90;82.90
51603;BME280;37954;51.980;5.850;2023-01-26T20:17:56;102116.59;;;6.82;82.36
51603;BME280;37954;51.980;5.850;2023-01-26T20:22:07;102127.63;;;6.87;82.67
51603;BME280;37954;51.980;5.850;2023-01-26T20:26:19;102129.47;;;6.87;82.67
51603;BME280;37954;51.980;5.850;2023-01-26T20:30:31;102114.75;;;6.83;82.64
51603;BME280;37954;51.980;5.850;2023-01-26T20:34:42;102133.13;;;6.94;82.25
51603;BME280;37954;51.980;5.850;2023-01-26T20:38:55;102141.50;;;6.91;82.27
51603;BME280;37954;51.980;5.850;2023-01-26T20:43:06;102131.97;;;6.88;82.22
51603;BME280;37954;51.980;5.850;2023-01-26T20:47:18;102140.81;;;6.89;82.56
51603;BME280;37954;51.980;5.850;2023-01-26T20:51:32;102139.47;;;6.85;82.70
51603;BME280;37954;51.980;5.850;2023-01-26T20:55:45;102136.13;;;6.83;82.37
51603;BME280;37954;51.980;5.850;2023-01-26T20:59:57;102133.44;;;6.83;82.34
51603;BME280;37954;51.980;5.850;2023-01-26T21:04:08;102136.44;;;6.80;82.12
51603;BME280;37954;51.980;5.850;2023-01-26T21:08:20;102132.78;;;6.81;82.27
51603;BME280;37954;51.980;5.850;2023-01-26T21:12:34;102139.97;;;6.80;81.72
51603;BME280;37954;51.980;5.850;2023-01-26T21:16:45;102132.78;;;6.73;81.84
51603;BME280;37954;51.980;5.850;2023-01-26T21:21:01;102133.94;;;6.70;82.35
51603;BME280;37954;51.980;5.850;2023-01-26T21:25:15;102121.72;;;6.59;82.05
51603;BME280;37954;51.980;5.850;2023-01-26T21:29:27;102132.91;;;6.55;82.41
51603;BME280;37954;51.980;5.850;2023-01-26T21:33:45;102130.22;;;6.55;82.22
51603;BME280;37954;51.980;5.850;2023-01-26T21:37:57;102117.47;;;6.41;83.11
51603;BME280;37954;51.980;5.850;2023-01-26T21:42:09;102105.81;;;6.34;83.18
51603;BME280;37954;51.980;5.850;2023-01-26T21:46:20;102122.16;;;6.39;83.23
51603;BME280;37954;51.980;5.850;2023-01-26T21:50:32;102116.47;;;6.42;83.20
51603;BME280;37954;51.980;5.850;2023-01-26T21:55:06;102107.16;;;6.38;82.93
51603;BME280;37954;51.980;5.850;2023-01-26T21:59:18;102116.47;;;6.42;83.41
51603;BME280;37954;51.980;5.850;2023-01-26T22:03:29;102118.66;;;6.38;82.97
51603;BME280;37954;51.980;5.850;2023-01-26T22:07:41;102108.47;;;6.34;83.18
51603;BME280;37954;51.980;5.850;2023-01-26T22:11:52;102116.16;;;6.37;83.08
51603;BME280;37954;51.980;5.850;2023-01-26T22:16:04;102111.28;;;6.32;83.14
51603;BME280;37954;51.980;5.850;2023-01-26T22:20:16;102118.31;;;6.33;83.13
51603;BME280;37954;51.980;5.850;2023-01-26T22:24:27;102127.16;;;6.34;83.02
51603;BME280;37954;51.980;5.850;2023-01-26T22:28:39;102125.28;;;6.26;83.03
51603;BME280;37954;51.980;5.850;2023-01-26T22:32:51;102111.59;;;6.21;83.03
51603;BME280;37954;51.980;5.850;2023-01-26T22:37:02;102121.53;;;6.11;83.17
51603;BME280;37954;51.980;5.850;2023-01-26T22:41:16;102123.53;;;6.09;83.21
51603;BME280;37954;51.980;5.850;2023-01-26T22:45:31;102139.66;;;5.99;83.21
51603;BME280;37954;51.980;5.850;2023-01-26T22:49:43;102127.28;;;5.90;82.62
51603;BME280;37954;51.980;5.850;2023-01-26T22:53:57;102137.00;;;5.99;82.88
51603;BME280;37954;51.980;5.850;2023-01-26T22:58:09;102132.13;;;5.94;83.06
51603;BME280;37954;51.980;5.850;2023-01-26T23:02:21;102139.16;;;5.96;82.92
51603;BME280;37954;51.980;5.850;2023-01-26T23:06:32;102130.56;;;5.84;83.14
51603;BME280;37954;51.980;5.850;2023-01-26T23:10:44;102130.03;;;5.80;83.06
51603;BME280;37954;51.980;5.850;2023-01-26T23:14:55;102143.50;;;5.79;82.95
51603;BME280;37954;51.980;5.850;2023-01-26T23:19:07;102131.47;;;5.75;82.70
51603;BME280;37954;51.980;5.850;2023-01-26T23:23:18;102142.78;;;5.69;83.24
51603;BME280;37954;51.980;5.850;2023-01-26T23:27:32;102138.09;;;5.63;83.20
51603;BME280;37954;51.980;5.850;2023-01-26T23:31:44;102149.56;;;5.63;83.12
51603;BME280;37954;51.980;5.850;2023-01-26T23:35:56;102149.97;;;5.68;83.07
51603;BME280;37954;51.980;5.850;2023-01-26T23:40:08;102144.09;;;5.65;82.76
51603;BME280;37954;51.980;5.850;2023-01-26T23:44:19;102144.88;;;5.57;82.78
51603;BME280;37954;51.980;5.850;2023-01-26T23:48:31;102163.75;;;5.64;83.00
51603;BME280;37954;51.980;5.850;2023-01-26T23:52:43;102164.75;;;5.63;82.33